createdAt,value
2019-01-09T00:03:10.463Z,63.00
2019-01-09T00:08:18.195Z,63.00
2019-01-09T00:13:24.252Z,63.10
2019-01-09T00:18:29.718Z,63.20
2019-01-09T00:23:37.390Z,63.30
2019-01-09T00:28:44.358Z,63.30
2019-01-09T00:33:50.622Z,63.40
2019-01-09T00:38:56.358Z,63.40
2019-01-09T00:44:04.449Z,63.30
2019-01-09T00:49:10.243Z,63.20
2019-01-09T00:54:16.556Z,63.30
2019-01-09T00:59:25.159Z,63.30
2019-01-09T01:05:14.199Z,63.20
2019-01-09T01:10:54.759Z,63.20
2019-01-09T01:16:35.419Z,63.10
2019-01-09T01:21:57.178Z,63.00
2019-01-09T01:27:55.631Z,63.00
2019-01-09T01:33:41.255Z,62.90
2019-01-09T01:39:36.291Z,63.00
2019-01-09T01:45:19.645Z,62.80
2019-01-09T01:50:47.978Z,62.90
2019-01-09T01:56:30.517Z,62.80
2019-01-09T02:02:14.896Z,63.00
2019-01-09T02:07:57.842Z,63.20
2019-01-09T02:13:52.137Z,63.20
2019-01-09T02:19:26.585Z,62.90
2019-01-09T02:24:56.895Z,62.70
2019-01-09T02:30:33.988Z,62.70
2019-01-09T02:35:39.702Z,62.90
2019-01-09T02:40:44.968Z,63.20
2019-01-09T02:45:54.025Z,63.30
2019-01-09T02:50:58.214Z,63.50
2019-01-09T02:56:03.501Z,63.60
2019-01-09T03:01:08.932Z,63.60
2019-01-09T03:06:22.759Z,63.70
2019-01-09T03:11:23.164Z,63.60
2019-01-09T03:16:28.899Z,63.50
2019-01-09T03:21:34.391Z,63.30
2019-01-09T03:26:40.813Z,63.20
2019-01-09T03:31:46.324Z,63.20
2019-01-09T03:36:51.981Z,63.20
2019-01-09T03:41:59.198Z,63.00
2019-01-09T03:47:04.521Z,63.00
2019-01-09T03:52:09.842Z,62.90
2019-01-09T03:57:16.085Z,63.00
2019-01-09T04:02:21.418Z,63.00
2019-01-09T04:07:27.152Z,63.00
2019-01-09T04:12:32.307Z,62.90
2019-01-09T04:17:44.313Z,62.80
2019-01-09T04:22:49.875Z,62.70
2019-01-09T04:27:55.143Z,62.60
2019-01-09T04:33:00.337Z,62.40
2019-01-09T04:38:05.390Z,62.50
2019-01-09T04:43:11.160Z,62.50
2019-01-09T04:48:16.400Z,62.50
2019-01-09T04:53:22.008Z,62.70
2019-01-09T04:58:27.600Z,62.70
2019-01-09T05:03:33.219Z,62.60
2019-01-09T05:08:38.989Z,62.50
2019-01-09T05:13:44.539Z,62.70
2019-01-09T05:18:53.100Z,63.50
2019-01-09T05:23:59.166Z,62.70
2019-01-09T05:29:04.195Z,62.50
2019-01-09T05:34:09.612Z,62.30
2019-01-09T05:39:15.679Z,62.40
2019-01-09T05:44:20.928Z,62.10
2019-01-09T05:49:26.142Z,62.00
2019-01-09T05:54:32.140Z,61.90
2019-01-09T05:59:40.512Z,61.40
2019-01-09T06:04:45.811Z,60.70
2019-01-09T06:09:52.259Z,61.00
2019-01-09T06:14:57.880Z,61.00
2019-01-09T06:20:03.064Z,60.80
2019-01-09T06:25:08.967Z,61.00
2019-01-09T06:30:14.148Z,61.20
2019-01-09T06:35:19.354Z,61.10
2019-01-09T06:40:24.538Z,61.10
2019-01-09T06:45:30.456Z,60.90
2019-01-09T06:50:35.850Z,60.70
2019-01-09T06:55:41.570Z,60.50
2019-01-09T07:00:46.931Z,60.50
2019-01-09T07:05:52.192Z,60.40
2019-01-09T07:10:58.014Z,60.50
2019-01-09T07:16:03.432Z,60.40
2019-01-09T07:21:08.448Z,60.30
2019-01-09T07:26:13.425Z,60.20
2019-01-09T07:31:18.637Z,60.00
2019-01-09T07:36:24.071Z,59.90
2019-01-09T07:41:28.939Z,60.00
2019-01-09T07:46:33.858Z,60.20
2019-01-09T07:51:39.586Z,60.20
2019-01-09T07:56:44.734Z,60.10
2019-01-09T08:01:49.999Z,60.10
2019-01-09T08:06:55.486Z,60.30
2019-01-09T08:12:00.631Z,60.30
2019-01-09T08:17:08.964Z,60.20
2019-01-09T08:22:14.626Z,60.40
2019-01-09T08:27:20.057Z,60.60
2019-01-09T08:32:25.494Z,60.60
2019-01-09T08:37:32.897Z,60.70
2019-01-09T08:42:39.086Z,61.00
2019-01-09T08:47:44.681Z,61.10
2019-01-09T08:52:49.705Z,61.20
2019-01-09T08:57:55.278Z,61.10
2019-01-09T09:03:00.682Z,61.10
2019-01-09T09:08:11.742Z,61.20
2019-01-09T09:13:26.553Z,61.30
2019-01-09T09:18:31.727Z,61.40
2019-01-09T09:23:36.900Z,61.40
2019-01-09T09:28:42.429Z,61.30
2019-01-09T09:33:49.488Z,61.20
2019-01-09T09:38:55.046Z,61.10
2019-01-09T09:44:03.939Z,61.10
2019-01-09T09:49:21.979Z,60.90
2019-01-09T09:54:27.059Z,60.80
2019-01-09T09:59:32.032Z,60.20
2019-01-09T10:04:37.352Z,60.30
2019-01-09T10:09:42.626Z,59.30
2019-01-09T10:14:47.723Z,59.60
2019-01-09T10:19:55.562Z,59.00
2019-01-09T10:25:00.875Z,59.10
2019-01-09T10:30:08.679Z,58.80
2019-01-09T10:35:14.328Z,58.00
2019-01-09T10:40:20.332Z,58.50
2019-01-09T10:45:25.349Z,58.20
2019-01-09T10:50:30.156Z,58.20
2019-01-09T10:55:35.086Z,58.60
2019-01-09T11:00:40.383Z,57.70
2019-01-09T11:05:45.406Z,58.20
2019-01-09T11:10:50.819Z,58.20
2019-01-09T11:15:57.108Z,58.40
2019-01-09T11:21:03.608Z,58.20
2019-01-09T11:26:08.900Z,58.40
2019-01-09T11:31:14.154Z,58.00
2019-01-09T11:36:21.933Z,58.10
2019-01-09T11:41:35.617Z,57.70
2019-01-09T11:47:33.834Z,57.40
2019-01-09T11:52:58.414Z,57.90
2019-01-09T11:58:03.258Z,57.60
2019-01-09T12:04:03.276Z,57.20
2019-01-09T12:09:22.525Z,56.90
2019-01-09T12:14:29.213Z,57.00
2019-01-09T12:19:34.706Z,57.10
2019-01-09T12:24:41.518Z,57.20
2019-01-09T12:29:46.462Z,57.00
2019-01-09T12:34:51.963Z,57.10
2019-01-09T12:39:59.249Z,57.60
2019-01-09T12:45:04.644Z,57.10
2019-01-09T12:50:14.146Z,57.10
2019-01-09T12:55:19.113Z,57.20
2019-01-09T13:00:26.146Z,57.10
2019-01-09T13:05:31.154Z,57.10
2019-01-09T13:10:36.132Z,57.20
2019-01-09T13:15:41.410Z,57.20
2019-01-09T13:20:46.712Z,57.30
2019-01-09T13:25:51.714Z,57.00
2019-01-09T13:30:56.925Z,57.00
2019-01-09T13:36:09.077Z,57.20
2019-01-09T13:41:21.842Z,56.90
2019-01-09T13:46:28.319Z,57.00
2019-01-09T13:51:38.687Z,57.10
2019-01-09T13:56:43.634Z,57.20
2019-01-09T14:01:48.811Z,57.20
2019-01-09T14:06:59.959Z,57.20
2019-01-09T14:18:43.149Z,57.10
2019-01-09T14:24:43.084Z,57.10
2019-01-09T14:30:34.652Z,57.10
2019-01-09T14:35:47.806Z,57.10
2019-01-09T14:40:55.312Z,57.00
2019-01-09T14:46:02.430Z,57.10
2019-01-09T14:51:17.102Z,57.00
2019-01-09T14:56:29.077Z,57.00
2019-01-09T15:01:43.754Z,56.90
2019-01-09T15:06:54.082Z,56.90
2019-01-09T15:12:07.582Z,56.60
2019-01-09T15:17:31.907Z,56.70
2019-01-09T15:22:38.354Z,56.80
2019-01-09T15:27:50.007Z,56.70
2019-01-09T15:32:58.904Z,56.70
2019-01-09T15:38:04.793Z,56.70
2019-01-09T15:43:15.551Z,56.60
2019-01-09T15:48:25.182Z,56.50
2019-01-09T15:53:32.007Z,56.60
2019-01-09T15:58:39.528Z,56.10
2019-01-09T16:03:45.987Z,56.30
2019-01-09T16:08:59.477Z,56.30
2019-01-09T16:14:20.588Z,56.40
2019-01-09T16:19:33.003Z,56.40
2019-01-09T16:24:45.656Z,56.40
2019-01-09T16:30:33.861Z,56.50
2019-01-09T16:36:23.449Z,56.40
2019-01-09T16:41:31.769Z,56.30
2019-01-09T16:46:41.993Z,56.40
2019-01-09T16:51:57.402Z,56.40
2019-01-09T16:57:05.833Z,56.40
2019-01-09T17:03:00.154Z,56.60
2019-01-09T17:08:13.844Z,56.40
2019-01-09T17:13:24.917Z,56.10
2019-01-09T17:18:35.227Z,56.20
2019-01-09T17:23:45.220Z,56.30
2019-01-09T17:28:54.482Z,56.30
2019-01-09T17:34:05.941Z,56.30
2019-01-09T17:39:16.743Z,56.10
2019-01-09T17:44:37.677Z,56.10
2019-01-09T17:56:01.168Z,56.00
2019-01-09T18:01:25.104Z,55.80
2019-01-09T18:07:08.869Z,55.60
2019-01-09T18:12:28.044Z,55.70
2019-01-09T18:18:02.400Z,55.90
2019-01-09T18:23:09.589Z,55.90
2019-01-09T18:28:51.863Z,56.00
2019-01-09T18:34:47.590Z,56.10
2019-01-09T18:40:32.115Z,56.00
2019-01-09T18:46:35.265Z,56.00
2019-01-09T18:52:35.854Z,55.90
2019-01-09T18:57:57.798Z,56.00
2019-01-09T19:03:03.336Z,56.20
2019-01-09T19:08:08.606Z,56.30
2019-01-09T19:13:13.550Z,56.20
2019-01-09T19:18:18.981Z,56.00
2019-01-09T19:23:28.911Z,56.10
2019-01-09T19:28:33.949Z,56.30
2019-01-09T19:33:39.355Z,56.30
2019-01-09T19:38:44.498Z,56.10
2019-01-09T19:43:49.397Z,56.20
2019-01-09T19:48:54.720Z,56.40
2019-01-09T19:53:59.665Z,56.40
2019-01-09T19:59:06.537Z,56.40
2019-01-09T20:04:12.507Z,56.50
2019-01-09T20:09:17.988Z,56.50
2019-01-09T20:14:23.018Z,56.50
2019-01-09T20:19:29.090Z,56.50
2019-01-09T20:24:34.527Z,56.50
2019-01-09T20:29:39.603Z,56.40
2019-01-09T20:34:45.058Z,56.40
2019-01-09T20:39:53.727Z,56.50
2019-01-09T20:44:58.850Z,56.50
2019-01-09T20:50:15.408Z,56.60
2019-01-09T20:55:23.437Z,56.50
2019-01-09T21:00:34.894Z,56.60
2019-01-09T21:05:45.522Z,56.50
2019-01-09T21:10:54.518Z,56.60
2019-01-09T21:15:59.750Z,56.50
2019-01-09T21:21:06.669Z,56.50
2019-01-09T21:26:12.264Z,56.50
2019-01-09T21:31:20.676Z,56.50
2019-01-09T21:36:26.014Z,56.50
2019-01-09T21:41:31.853Z,56.50
2019-01-09T21:46:45.906Z,56.40
2019-01-09T21:51:52.985Z,56.50
2019-01-09T21:56:58.294Z,56.40
2019-01-09T22:02:03.438Z,56.40
2019-01-09T22:07:11.660Z,56.40
2019-01-09T22:12:19.993Z,56.40
2019-01-09T22:17:31.514Z,56.50
2019-01-09T22:22:51.478Z,56.50
2019-01-09T22:28:08.104Z,56.40
2019-01-09T22:33:16.066Z,56.50
2019-01-09T22:38:32.449Z,56.40
2019-01-09T22:43:40.882Z,56.40
2019-01-09T22:48:54.479Z,56.40
2019-01-09T22:54:25.882Z,56.50
2019-01-09T22:59:42.843Z,56.50
2019-01-09T23:05:23.738Z,56.60
2019-01-09T23:10:44.587Z,56.60
2019-01-09T23:15:57.777Z,56.60
2019-01-09T23:21:04.878Z,56.60
2019-01-09T23:26:16.383Z,56.60
2019-01-09T23:31:24.611Z,56.60
2019-01-09T23:36:38.380Z,56.70
2019-01-09T23:41:47.858Z,56.60
2019-01-09T23:46:58.047Z,56.60
2019-01-09T23:52:06.740Z,56.60
2019-01-09T23:57:16.858Z,56.70
